Herrera, Argentina
Current Conditions -  °F | °C
As of 3:00 AM on Sunday 23 Nov 2014 (Local Time) from SANT Reporting Station
Clear Clear  
Wind Chill: 70°   Ceiling: Unl
Heat Index: 70°   Visibility: 6mi
Dew Point: 59°   Wind: 7mph
Humidity: 68%   Direction: 360°N
Pressure: 29.88"   Gusts: NA
Location:  28.48°S, 63.07°W
Report Text: SANT 230600Z 36006KT CAVOK 21/15 Q1012
Loading
Personal Weather Stations






























Interactive Weather Map New forecast layout! Learn more

10-Day Weather Forecast

Advertisements
Track Severe Weather on mobile